createdAt,value
2019-03-24T00:00:45.834Z,20.73
2019-03-24T00:05:49.864Z,15.67
2019-03-24T00:10:53.867Z,22.73
2019-03-24T00:15:57.802Z,19.00
2019-03-24T00:21:01.817Z,17.40
2019-03-24T00:26:05.822Z,21.80
2019-03-24T00:31:09.860Z,21.83
2019-03-24T00:36:13.856Z,18.07
2019-03-24T00:41:17.859Z,19.40
2019-03-24T00:46:21.884Z,20.07
2019-03-24T00:51:25.886Z,27.30
2019-03-24T00:56:29.982Z,18.40
2019-03-24T01:01:33.982Z,28.03
2019-03-24T01:06:37.984Z,19.60
2019-03-24T01:11:42.006Z,19.20
2019-03-24T01:16:45.934Z,21.63
2019-03-24T01:21:49.859Z,22.83
2019-03-24T01:26:53.866Z,22.73
2019-03-24T01:31:57.914Z,25.13
2019-03-24T01:37:01.934Z,24.73
2019-03-24T01:42:05.876Z,24.73
2019-03-24T01:47:09.870Z,23.03
2019-03-24T01:52:13.860Z,22.17
2019-03-24T01:57:17.782Z,21.67
2019-03-24T02:02:21.712Z,27.00
2019-03-24T02:07:25.699Z,20.97
2019-03-24T02:12:29.701Z,22.87
2019-03-24T02:17:33.683Z,22.77
2019-03-24T02:22:37.666Z,20.90
2019-03-24T02:27:41.751Z,20.50
2019-03-24T02:32:45.735Z,20.93
2019-03-24T02:37:49.731Z,21.87
2019-03-24T02:42:53.654Z,19.30
2019-03-24T02:47:57.678Z,18.70
2019-03-24T02:53:01.589Z,18.73
2019-03-24T02:58:05.524Z,15.30
2019-03-24T03:03:09.439Z,17.43
2019-03-24T03:08:13.335Z,20.97
2019-03-24T03:13:17.239Z,17.10
2019-03-24T03:18:21.167Z,20.13
2019-03-24T03:23:26.087Z,26.30
2019-03-24T03:28:30.068Z,19.67
2019-03-24T03:33:34.120Z,18.47
2019-03-24T03:38:38.192Z,23.53
2019-03-24T03:43:42.207Z,22.67
2019-03-24T03:48:46.167Z,21.97
2019-03-24T03:53:50.097Z,17.57
2019-03-24T03:58:54.113Z,23.27
2019-03-24T04:03:58.096Z,27.43
2019-03-24T04:09:02.096Z,21.57
2019-03-24T04:14:06.082Z,24.17
2019-03-24T04:19:10.026Z,29.00
2019-03-24T04:24:14.008Z,28.43
2019-03-24T04:29:18.097Z,29.27
2019-03-24T04:34:22.076Z,36.17
2019-03-24T04:39:26.021Z,42.80
2019-03-24T04:44:29.960Z,41.57
2019-03-24T04:49:33.919Z,46.20
2019-03-24T04:54:37.913Z,52.27
2019-03-24T04:59:41.799Z,53.07
2019-03-24T05:04:45.786Z,46.57
2019-03-24T05:09:50.213Z,49.60
2019-03-24T05:14:54.218Z,42.47
2019-03-24T05:19:58.145Z,49.50
2019-03-24T05:25:02.064Z,38.80
2019-03-24T05:30:06.096Z,43.17
2019-03-24T05:35:10.199Z,34.70
2019-03-24T05:40:14.237Z,37.97
2019-03-24T05:45:18.194Z,43.30
2019-03-24T05:50:22.136Z,39.10
2019-03-24T05:55:26.128Z,41.43
2019-03-24T06:00:30.139Z,36.80
2019-03-24T06:05:34.038Z,39.83
2019-03-24T06:10:38.060Z,35.00
2019-03-24T06:15:42.030Z,31.23
2019-03-24T06:20:46.030Z,34.50
2019-03-24T06:25:50.036Z,37.97
2019-03-24T06:30:54.020Z,36.37
2019-03-24T06:35:58.043Z,36.17
2019-03-24T06:41:02.038Z,32.57
2019-03-24T06:46:06.550Z,47.43
2019-03-24T06:51:10.492Z,35.33
2019-03-24T06:56:14.426Z,35.90
2019-03-24T07:01:18.357Z,39.03
2019-03-24T07:06:22.339Z,37.17
2019-03-24T07:11:26.279Z,36.23
2019-03-24T07:16:30.205Z,41.37
2019-03-24T07:21:34.108Z,43.13
2019-03-24T07:26:38.097Z,36.60
2019-03-24T07:31:42.093Z,46.73
2019-03-24T07:36:46.101Z,39.40
2019-03-24T07:41:51.103Z,37.93
2019-03-24T07:46:55.425Z,31.23
2019-03-24T07:51:59.387Z,28.47
2019-03-24T07:57:03.392Z,22.57
2019-03-24T08:02:08.202Z,19.48
2019-03-24T08:07:12.947Z,19.20
2019-03-24T08:12:17.756Z,26.12
2019-03-24T08:17:22.471Z,21.90
2019-03-24T08:22:27.246Z,21.82
2019-03-24T08:27:32.016Z,21.45
2019-03-24T08:32:36.742Z,25.25
2019-03-24T08:37:41.574Z,23.12
2019-03-24T08:42:46.316Z,23.87
2019-03-24T08:47:51.029Z,30.97
2019-03-24T08:52:56.302Z,25.35
2019-03-24T08:58:01.037Z,25.10
2019-03-24T09:03:05.806Z,34.33
2019-03-24T09:08:10.522Z,46.45
2019-03-24T09:13:15.306Z,38.53
2019-03-24T09:18:20.070Z,38.30
2019-03-24T09:23:24.844Z,36.50
2019-03-24T09:28:30.741Z,35.63
2019-03-24T09:33:35.507Z,35.48
2019-03-24T09:38:40.247Z,36.77
2019-03-24T09:43:44.987Z,25.55
2019-03-24T09:48:49.786Z,20.00
2019-03-24T09:53:54.657Z,23.07
2019-03-24T09:58:59.388Z,28.85
2019-03-24T10:04:04.178Z,25.60
2019-03-24T10:09:08.206Z,25.10
2019-03-24T10:14:12.983Z,28.17
2019-03-24T10:19:17.740Z,23.85
2019-03-24T10:24:22.487Z,22.55
2019-03-24T10:29:27.225Z,26.97
2019-03-24T10:34:31.980Z,23.07
2019-03-24T10:39:36.732Z,20.68
2019-03-24T10:44:41.477Z,21.37
2019-03-24T10:49:46.309Z,23.55
2019-03-24T10:54:51.114Z,24.23
2019-03-24T10:59:55.845Z,21.45
2019-03-24T11:05:00.668Z,23.02
2019-03-24T11:10:05.924Z,22.50
2019-03-24T11:15:11.399Z,23.35
2019-03-24T11:20:15.356Z,21.90
2019-03-24T11:25:20.068Z,21.42
2019-03-24T11:30:24.805Z,19.73
2019-03-24T11:35:29.551Z,21.52
2019-03-24T11:40:34.667Z,18.48
2019-03-24T11:45:39.469Z,22.22
2019-03-24T11:50:44.327Z,23.02
2019-03-24T11:55:49.068Z,22.25
2019-03-24T12:00:53.780Z,22.37
2019-03-24T12:05:58.617Z,25.50
2019-03-24T12:11:03.584Z,20.43
2019-03-24T12:16:08.503Z,20.25
2019-03-24T12:21:13.348Z,17.42
2019-03-24T12:26:18.301Z,17.65
2019-03-24T12:31:23.063Z,18.52
2019-03-24T12:36:27.875Z,19.32
2019-03-24T12:41:32.706Z,17.00
2019-03-24T12:46:37.552Z,14.13
2019-03-24T12:51:42.418Z,14.90
2019-03-24T12:56:47.248Z,15.23
2019-03-24T13:01:52.929Z,16.50
2019-03-24T13:06:57.038Z,18.12
2019-03-24T13:12:02.139Z,19.90
2019-03-24T13:17:07.919Z,22.22
2019-03-24T13:22:12.748Z,14.25
2019-03-24T13:27:17.491Z,11.38
2019-03-24T13:32:22.297Z,10.60
2019-03-24T13:37:27.042Z,15.68
2019-03-24T13:46:29.549Z,7.95
2019-03-24T13:51:34.340Z,8.75
2019-03-24T13:56:39.292Z,6.62
2019-03-24T14:01:44.065Z,5.15
2019-03-24T14:06:48.804Z,4.83
2019-03-24T14:11:53.518Z,5.83
2019-03-24T14:16:58.347Z,5.12
2019-03-24T14:22:03.152Z,3.87
2019-03-24T14:27:07.930Z,5.87
2019-03-24T14:32:12.796Z,6.83
2019-03-24T14:37:17.560Z,4.30
2019-03-24T14:42:21.582Z,5.33
2019-03-24T14:47:25.623Z,6.95
2019-03-24T14:52:29.663Z,6.40
2019-03-24T14:57:34.408Z,5.30
2019-03-24T15:02:40.854Z,5.67
2019-03-24T15:07:45.589Z,7.55
2019-03-24T15:12:50.380Z,5.28
2019-03-24T15:17:55.225Z,4.45
2019-03-24T15:22:59.955Z,4.70
2019-03-24T15:28:04.719Z,3.10
2019-03-24T15:33:09.527Z,4.45
2019-03-24T15:38:14.321Z,2.52
2019-03-24T15:43:19.265Z,2.08
2019-03-24T15:48:23.973Z,3.37
2019-03-24T15:53:28.723Z,3.75
2019-03-24T15:58:33.473Z,3.12
2019-03-24T16:03:38.203Z,5.87
2019-03-24T16:08:44.476Z,9.18
2019-03-24T16:13:49.491Z,6.45
2019-03-24T16:18:54.292Z,6.62
2019-03-24T16:23:59.081Z,6.37
2019-03-24T16:29:04.049Z,5.80
2019-03-24T16:34:08.866Z,5.37
2019-03-24T16:39:13.678Z,5.83
2019-03-24T16:44:18.431Z,5.58
2019-03-24T16:49:23.160Z,5.58
2019-03-24T16:54:27.926Z,7.17
2019-03-24T16:59:32.692Z,6.25
2019-03-24T17:04:37.496Z,5.17
2019-03-24T17:09:42.297Z,3.45
2019-03-24T17:14:47.084Z,2.70
2019-03-24T17:19:51.863Z,4.10
2019-03-24T17:24:56.635Z,4.87
2019-03-24T17:30:01.546Z,3.55
2019-03-24T17:35:07.969Z,4.50
2019-03-24T17:40:13.333Z,5.58
2019-03-24T17:45:18.387Z,3.02
2019-03-24T17:50:23.132Z,4.90
2019-03-24T17:55:30.776Z,4.37
2019-03-24T18:00:43.361Z,4.40
2019-03-24T18:05:48.799Z,4.85
2019-03-24T18:10:53.666Z,4.12
2019-03-24T18:15:58.567Z,2.77
2019-03-24T18:21:03.513Z,5.95
2019-03-24T18:26:08.511Z,4.95
2019-03-24T18:31:13.590Z,6.95
2019-03-24T18:36:18.356Z,4.28
2019-03-24T18:41:23.310Z,7.78
2019-03-24T18:46:28.141Z,7.20
2019-03-24T18:51:33.079Z,5.92
2019-03-24T18:56:38.108Z,6.50
2019-03-24T19:01:44.920Z,4.58
2019-03-24T19:06:49.774Z,6.28
2019-03-24T19:11:54.646Z,6.53
2019-03-24T19:16:59.516Z,6.23
2019-03-24T19:22:04.402Z,3.92
2019-03-24T19:27:09.271Z,5.33
2019-03-24T19:32:14.225Z,6.50
2019-03-24T19:37:20.414Z,5.33
2019-03-24T19:42:25.380Z,10.72
2019-03-24T19:47:32.335Z,5.70
2019-03-24T19:52:44.696Z,6.83
2019-03-24T19:57:43.976Z,8.03
2019-03-24T20:02:48.785Z,8.40
2019-03-24T20:07:53.656Z,6.67
2019-03-24T20:12:58.592Z,8.68
2019-03-24T20:18:03.358Z,7.62
2019-03-24T20:23:08.242Z,9.05
2019-03-24T20:28:13.261Z,12.65
2019-03-24T20:33:18.180Z,8.07
2019-03-24T20:38:23.093Z,6.83
2019-03-24T20:43:27.840Z,7.97
2019-03-24T20:48:32.694Z,8.18
2019-03-24T20:53:37.557Z,11.45
2019-03-24T20:58:42.449Z,10.83
2019-03-24T21:03:47.272Z,10.90
2019-03-24T21:08:52.106Z,8.98
2019-03-24T21:13:56.922Z,13.10
2019-03-24T21:19:01.702Z,9.97
2019-03-24T21:24:06.591Z,10.50
2019-03-24T21:29:11.445Z,9.77
2019-03-24T21:34:16.466Z,10.93
2019-03-24T21:39:21.352Z,10.03
2019-03-24T21:44:26.328Z,9.70
2019-03-24T21:49:31.087Z,11.03
2019-03-24T21:54:35.836Z,7.27
2019-03-24T21:59:40.618Z,6.57
2019-03-24T22:04:45.344Z,9.80
2019-03-24T22:09:50.067Z,8.37
2019-03-24T22:14:54.776Z,7.80
2019-03-24T22:19:59.526Z,7.27
2019-03-24T22:25:04.331Z,9.27
2019-03-24T22:30:09.689Z,6.83
2019-03-24T22:35:14.551Z,7.17
2019-03-24T22:40:19.371Z,11.10
2019-03-24T22:45:24.142Z,9.30
2019-03-24T22:50:28.984Z,8.13
2019-03-24T22:55:33.728Z,9.20
2019-03-24T23:00:47.129Z,9.07
2019-03-24T23:05:51.950Z,9.27
2019-03-24T23:10:56.708Z,10.43
2019-03-24T23:16:01.415Z,6.83
2019-03-24T23:21:06.495Z,9.77
2019-03-24T23:26:11.546Z,10.33
2019-03-24T23:31:17.910Z,15.03
2019-03-24T23:36:22.624Z,11.77
2019-03-24T23:41:27.331Z,13.00
2019-03-24T23:46:32.592Z,7.67
2019-03-24T23:51:37.308Z,6.73
2019-03-24T23:56:42.057Z,13.63
